Time;durP1;ratioP1;P1;durP2;ratioP2;P2;SDS_P1;SDS_P2;PMS_P1;PMS_P2;Temp;Humidity;BMP_temperature;BMP_pressure;BME280_temperature;BME280_humidity;BME280_pressure;Samples;Min_cycle;Max_cycle;Signal;HPM_P1;HPM_P2
2022/06/12 00:01:28;;;;;;;5.50;1.90;;;25.10;56.00;;;;;;220118;1270;24301;-53
2022/06/12 00:06:31;;;;;;;4.80;2.20;;;25.10;55.90;;;;;;220076;1271;22537;-55
2022/06/12 00:11:34;;;;;;;3.00;2.00;;;25.10;56.00;;;;;;219915;1271;24354;-53
2022/06/12 00:16:41;;;;;;;4.20;2.10;;;25.10;56.30;;;;;;220192;1270;25369;-54
2022/06/12 00:21:43;;;;;;;5.30;2.50;;;25.10;56.00;;;;;;220064;1271;22551;-54
2022/06/12 00:26:49;;;;;;;4.90;2.40;;;25.00;56.00;;;;;;219930;1271;25281;-52
2022/06/12 00:31:59;;;;;;;2.90;1.80;;;25.10;56.00;;;;;;219923;1270;24470;-53
2022/06/12 00:37:06;;;;;;;5.20;2.30;;;25.00;56.00;;;;;;220169;1270;24396;-52
2022/06/12 00:42:29;;;;;;;3.10;1.80;;;25.00;56.00;;;;;;220056;1270;25276;-54
2022/06/12 00:47:31;;;;;;;5.00;2.20;;;25.00;56.00;;;;;;220087;1270;22628;-55
2022/06/12 00:52:37;;;;;;;4.10;2.20;;;25.00;56.00;;;;;;219967;1270;22541;-54
2022/06/12 00:57:40;;;;;;;4.40;2.20;;;25.00;56.00;;;;;;220017;1270;25328;-53
2022/06/12 01:02:43;;;;;;;3.00;2.20;;;25.00;56.10;;;;;;220129;1270;22541;-54
2022/06/12 01:07:50;;;;;;;5.30;2.60;;;25.00;56.10;;;;;;219936;1271;24419;-52
2022/06/12 01:12:59;;;;;;;3.10;2.20;;;25.00;56.10;;;;;;220095;1270;23952;-53
2022/06/12 01:18:06;;;;;;;3.50;2.00;;;25.00;56.40;;;;;;219495;1270;804264;-56
2022/06/12 01:23:23;;;;;;;5.60;2.40;;;25.00;56.10;;;;;;220074;1270;25516;-51
2022/06/12 01:28:52;;;;;;;2.60;2.00;;;25.00;56.10;;;;;;219943;1271;22554;-53
2022/06/12 01:33:57;;;;;;;3.40;1.90;;;24.90;56.10;;;;;;219669;1270;22587;-54
2022/06/12 01:39:23;;;;;;;3.00;2.10;;;24.90;56.10;;;;;;220094;1270;22560;-53
2022/06/12 01:44:39;;;;;;;4.10;2.50;;;24.90;56.00;;;;;;220095;1270;22692;-57
2022/06/12 01:50:11;;;;;;;4.00;2.10;;;24.90;56.00;;;;;;219841;1270;23931;-53
2022/06/12 01:55:35;;;;;;;3.10;2.10;;;24.90;56.30;;;;;;219780;1270;23743;-53
2022/06/12 02:00:42;;;;;;;3.70;2.10;;;24.90;56.00;;;;;;219910;1270;22591;-57
2022/06/12 02:05:57;;;;;;;4.00;2.00;;;24.90;55.90;;;;;;220247;1270;25264;-54
2022/06/12 02:16:39;;;;;;;3.60;2.40;;;24.90;56.00;;;;;;219998;1270;24474;-55
2022/06/12 02:22:06;;;;;;;4.20;2.60;;;24.90;56.00;;;;;;220056;1270;22567;-54
2022/06/12 02:27:16;;;;;;;9.10;2.60;;;24.90;56.00;;;;;;219980;1270;22587;-54
2022/06/12 02:32:34;;;;;;;5.60;2.60;;;24.90;56.00;;;;;;220025;1270;22539;-54
2022/06/12 02:37:47;;;;;;;5.70;2.60;;;24.90;56.00;;;;;;220257;1270;24275;-56
2022/06/12 02:42:52;;;;;;;3.00;2.00;;;24.90;56.10;;;;;;219888;1270;22557;-55
2022/06/12 02:47:54;;;;;;;7.50;2.80;;;24.80;56.00;;;;;;220198;1270;22541;-55
2022/06/12 02:53:14;;;;;;;3.70;2.40;;;24.80;56.00;;;;;;220038;1270;25344;-54
2022/06/12 02:58:22;;;;;;;7.40;2.70;;;24.80;56.30;;;;;;220092;1270;24269;-58
2022/06/12 03:03:24;;;;;;;4.00;2.00;;;24.80;56.00;;;;;;220139;1270;25192;-54
2022/06/12 03:08:35;;;;;;;3.40;2.40;;;24.80;56.00;;;;;;220130;1270;22583;-54
2022/06/12 03:13:38;;;;;;;;;;;24.80;56.00;;;;;;220250;1270;22707;-51
2022/06/12 03:18:47;;;;;;;5.90;2.50;;;24.80;56.10;;;;;;220020;1270;26566;-55
2022/06/12 03:24:24;;;;;;;9.00;3.10;;;24.80;56.40;;;;;;219860;1270;22550;-54
2022/06/12 03:29:35;;;;;;;4.80;2.40;;;24.80;56.00;;;;;;219982;1270;24264;-53
2022/06/12 03:34:59;;;;;;;3.00;2.30;;;24.80;56.00;;;;;;219927;1270;24383;-57
2022/06/12 03:40:20;;;;;;;3.30;2.20;;;24.80;56.00;;;;;;219931;1270;24124;-52
2022/06/12 03:45:34;;;;;;;7.10;2.40;;;24.80;56.30;;;;;;220040;1270;22533;-55
2022/06/12 03:51:00;;;;;;;5.30;2.20;;;24.80;56.00;;;;;;219715;1271;23921;-51
2022/06/12 04:02:24;;;;;;;3.30;2.20;;;24.80;56.00;;;;;;220227;1270;24979;-55
2022/06/12 04:07:30;;;;;;;3.40;2.20;;;24.80;56.00;;;;;;219982;1270;22654;-55
2022/06/12 04:12:34;;;;;;;2.90;2.00;;;24.80;56.00;;;;;;220123;1270;24396;-53
2022/06/12 04:17:36;;;;;;;2.80;2.00;;;24.70;56.20;;;;;;220277;1270;22711;-55
2022/06/12 04:23:06;;;;;;;3.50;2.40;;;24.70;55.90;;;;;;219944;1270;24097;-54
2022/06/12 04:28:43;;;;;;;6.70;2.40;;;24.70;56.20;;;;;;220148;1270;22658;-55
2022/06/12 04:33:48;;;;;;;3.50;2.30;;;24.70;55.80;;;;;;219678;1271;24214;-53
2022/06/12 04:38:53;;;;;;;4.50;2.30;;;24.80;55.90;;;;;;220245;1270;22564;-57
2022/06/12 04:43:55;;;;;;;3.70;2.20;;;24.70;55.80;;;;;;220125;1271;22735;-54
2022/06/12 04:48:59;;;;;;;5.50;2.60;;;24.70;55.80;;;;;;219947;1272;22706;-56
2022/06/12 04:54:01;;;;;;;3.80;2.40;;;24.70;55.80;;;;;;219875;1271;22634;-56
2022/06/12 04:59:05;;;;;;;3.50;2.30;;;24.70;55.80;;;;;;219828;1271;22554;-55
2022/06/12 05:04:07;;;;;;;7.70;2.80;;;24.70;55.80;;;;;;219989;1271;22598;-58
2022/06/12 05:09:12;;;;;;;8.90;3.00;;;24.80;55.80;;;;;;219970;1271;22589;-54
2022/06/12 05:14:14;;;;;;;4.70;2.50;;;24.70;55.80;;;;;;219892;1270;25589;-55
2022/06/12 05:19:21;;;;;;;4.00;2.50;;;24.80;55.80;;;;;;219959;1270;22629;-57
2022/06/12 05:24:24;;;;;;;3.80;2.30;;;24.80;55.80;;;;;;219936;1271;22567;-54
2022/06/12 05:29:36;;;;;;;3.70;2.40;;;24.80;55.80;;;;;;220319;1272;24341;-56
2022/06/12 05:34:39;;;;;;;4.50;2.40;;;24.80;55.80;;;;;;220001;1271;22625;-53
2022/06/12 05:39:42;;;;;;;3.50;2.20;;;24.80;55.80;;;;;;220145;1270;25392;-54
2022/06/12 05:44:45;;;;;;;2.90;2.30;;;24.80;56.10;;;;;;220142;1271;24280;-53
2022/06/12 05:49:48;;;;;;;3.50;2.10;;;24.80;55.80;;;;;;220105;1270;22586;-57
2022/06/12 05:54:52;;;;;;;3.30;2.20;;;24.80;55.80;;;;;;219962;1271;23914;-54
2022/06/12 05:59:54;;;;;;;4.00;2.20;;;24.80;56.00;;;;;;219798;1271;25527;-52
2022/06/12 06:04:57;;;;;;;4.20;2.40;;;24.80;55.70;;;;;;220114;1272;22584;-57
2022/06/12 06:10:00;;;;;;;3.10;2.40;;;24.80;55.70;;;;;;220143;1271;22545;-54
2022/06/12 06:15:08;;;;;;;3.50;2.30;;;24.80;55.70;;;;;;220122;1270;24208;-54
2022/06/12 06:20:33;;;;;;;4.80;2.20;;;24.80;55.70;;;;;;219782;1271;24454;-51
2022/06/12 06:25:40;;;;;;;3.80;2.40;;;24.80;55.60;;;;;;220270;1271;26257;-54
2022/06/12 06:30:46;;;;;;;2.70;1.90;;;24.90;56.00;;;;;;220219;1270;22712;-54
2022/06/12 06:35:58;;;;;;;3.90;2.40;;;24.90;55.70;;;;;;219897;1271;22563;-53
2022/06/12 06:41:01;;;;;;;4.50;2.30;;;24.90;55.70;;;;;;220283;1270;22562;-55
2022/06/12 06:46:13;;;;;;;4.40;2.40;;;24.90;55.60;;;;;;220318;1270;22551;-51
2022/06/12 06:51:16;;;;;;;6.60;2.60;;;24.90;55.60;;;;;;220180;1270;22547;-54
2022/06/12 06:56:21;;;;;;;3.20;2.20;;;24.90;55.60;;;;;;220054;1271;22614;-55
2022/06/12 07:01:24;;;;;;;4.50;2.50;;;24.90;55.60;;;;;;219927;1271;22961;-54
2022/06/12 07:06:28;;;;;;;3.30;2.20;;;24.90;55.50;;;;;;220050;1270;22541;-54
2022/06/12 07:11:34;;;;;;;3.20;2.30;;;24.90;55.50;;;;;;219826;1273;23925;-53
2022/06/12 07:16:40;;;;;;;2.50;1.90;;;24.90;55.80;;;;;;220159;1273;25275;-54
2022/06/12 07:21:53;;;;;;;3.10;2.40;;;25.00;55.50;;;;;;220068;1273;24432;-55
2022/06/12 07:27:08;;;;;;;3.20;2.20;;;25.00;55.50;;;;;;220040;1273;24529;-58
2022/06/12 07:32:14;;;;;;;2.70;2.10;;;25.00;55.40;;;;;;220267;1270;22581;-53
2022/06/12 07:37:25;;;;;;;2.90;2.00;;;25.00;55.40;;;;;;219965;1273;23345;-55
2022/06/12 07:42:28;;;;;;;3.40;2.30;;;25.00;55.40;;;;;;220064;1270;22604;-57
2022/06/12 07:47:32;;;;;;;3.10;2.20;;;25.10;55.40;;;;;;219935;1272;25231;-54
2022/06/12 07:52:38;;;;;;;3.20;2.30;;;25.10;55.40;;;;;;220168;1270;26527;-53
2022/06/12 07:57:53;;;;;;;3.70;2.60;;;25.10;56.00;;;;;;219924;1270;24237;-52
2022/06/12 08:02:57;;;;;;;3.20;2.30;;;25.10;55.40;;;;;;219901;1270;25270;-53
2022/06/12 08:08:01;;;;;;;4.60;2.80;;;25.10;55.40;;;;;;219949;1271;22553;-52
2022/06/12 08:13:10;;;;;;;3.10;2.10;;;25.10;55.40;;;;;;220276;1270;24427;-52
2022/06/12 08:18:32;;;;;;;4.50;2.60;;;25.10;55.30;;;;;;220179;1270;22694;-51
2022/06/12 08:24:05;;;;;;;2.60;2.20;;;25.10;55.30;;;;;;219947;1270;25331;-52
2022/06/12 08:29:09;;;;;;;3.00;2.20;;;25.10;55.00;;;;;;220118;1270;23194;-55
2022/06/12 08:34:22;;;;;;;2.80;2.10;;;25.20;55.30;;;;;;219992;1270;22711;-52
2022/06/12 08:39:25;;;;;;;3.00;2.00;;;25.20;55.40;;;;;;220213;1270;24208;-51
2022/06/12 08:44:47;;;;;;;3.50;2.00;;;25.20;55.30;;;;;;220025;1270;22560;-55
2022/06/12 08:50:25;;;;;;;3.10;2.10;;;25.20;55.30;;;;;;219983;1270;22611;-54
2022/06/12 08:55:40;;;;;;;3.30;2.20;;;25.20;55.40;;;;;;220191;1270;22563;-52
2022/06/12 09:00:44;;;;;;;3.00;2.20;;;25.30;55.40;;;;;;220121;1271;24289;-53
2022/06/12 09:06:25;;;;;;;3.30;2.30;;;25.30;55.40;;;;;;220088;1270;22544;-54
2022/06/12 09:11:36;;;;;;;3.00;2.10;;;25.30;55.40;;;;;;220265;1270;24441;-55
2022/06/12 09:17:13;;;;;;;2.90;2.00;;;25.40;55.40;;;;;;220226;1270;24295;-55
2022/06/12 09:22:34;;;;;;;2.70;2.20;;;25.40;55.40;;;;;;220165;1270;24272;-53
2022/06/12 09:27:44;;;;;;;3.00;2.20;;;25.40;55.30;;;;;;220087;1270;25256;-56
2022/06/12 09:33:00;;;;;;;2.80;2.00;;;25.40;55.20;;;;;;219974;1270;22636;-57
2022/06/12 09:38:56;;;;;;;3.30;2.00;;;25.40;55.20;;;;;;220013;1270;22776;-53
2022/06/12 09:44:07;;;;;;;2.50;1.60;;;25.40;55.50;;;;;;218696;1281;24249;-53
2022/06/12 09:49:38;;;;;;;2.90;2.00;;;25.50;55.50;;;;;;219801;1271;22556;-53
2022/06/12 09:55:15;;;;;;;2.70;2.00;;;25.50;55.10;;;;;;220217;1271;23941;-54
2022/06/12 10:00:43;;;;;;;3.10;1.90;;;25.60;55.40;;;;;;220158;1270;24219;-52
2022/06/12 10:05:54;;;;;;;2.80;1.70;;;25.60;55.00;;;;;;220112;1273;22541;-54
2022/06/12 10:11:34;;;;;;;2.60;2.00;;;25.70;55.00;;;;;;220119;1271;25253;-55
2022/06/12 10:16:52;;;;;;;2.80;2.00;;;25.70;55.00;;;;;;220046;1270;24242;-55
2022/06/12 10:22:23;;;;;;;2.60;1.90;;;25.70;54.90;;;;;;219986;1270;24299;-54
2022/06/12 10:28:19;;;;;;;2.10;1.70;;;25.80;55.00;;;;;;220117;1270;24445;-54
2022/06/12 10:33:30;;;;;;;2.40;2.00;;;25.80;55.00;;;;;;219961;1271;25329;-52
2022/06/12 10:38:36;;;;;;;2.20;1.70;;;25.80;55.00;;;;;;220081;1270;24492;-54
2022/06/12 10:43:46;;;;;;;2.20;1.70;;;25.80;55.10;;;;;;220049;1271;25268;-53
2022/06/12 10:48:58;;;;;;;2.60;2.20;;;25.80;55.10;;;;;;220002;1273;22570;-52
2022/06/12 10:54:27;;;;;;;2.60;2.10;;;25.70;55.10;;;;;;219937;1271;22634;-53
2022/06/12 11:00:08;;;;;;;2.90;2.10;;;25.80;55.10;;;;;;220061;1272;22694;-52
2022/06/12 11:05:29;;;;;;;2.20;1.80;;;25.80;55.20;;;;;;219824;1273;24324;-50
2022/06/12 11:11:14;;;;;;;2.60;2.00;;;25.90;55.00;;;;;;219792;1271;22695;-54
2022/06/12 11:16:52;;;;;;;2.50;1.90;;;25.90;54.90;;;;;;219871;1272;22883;-54
2022/06/12 11:22:28;;;;;;;2.80;2.20;;;26.00;55.00;;;;;;219943;1271;25273;-54
2022/06/12 11:28:10;;;;;;;2.40;1.90;;;26.00;55.00;;;;;;220320;1270;25403;-51
2022/06/12 11:33:27;;;;;;;2.60;1.80;;;26.00;55.10;;;;;;219810;1271;23010;-57
2022/06/12 11:38:43;;;;;;;2.40;1.90;;;26.00;55.00;;;;;;219875;1271;22566;-55
2022/06/12 11:43:53;;;;;;;2.60;1.90;;;26.00;54.90;;;;;;220086;1270;25276;-54
2022/06/12 11:49:36;;;;;;;2.80;2.00;;;26.00;54.80;;;;;;219984;1271;22726;-57
2022/06/12 11:54:57;;;;;;;2.80;2.00;;;26.00;54.90;;;;;;219723;1270;23328;-58
2022/06/12 12:00:18;;;;;;;2.30;1.80;;;26.10;54.90;;;;;;219708;1271;22630;-54
2022/06/12 12:05:29;;;;;;;2.60;1.80;;;26.10;54.90;;;;;;220019;1270;22557;-52
2022/06/12 12:11:04;;;;;;;2.20;1.80;;;26.10;54.90;;;;;;220046;1271;23171;-55
2022/06/12 12:16:41;;;;;;;2.70;1.70;;;26.10;54.90;;;;;;219770;1270;22826;-54
2022/06/12 12:21:59;;;;;;;2.40;1.70;;;26.10;54.90;;;;;;219702;1273;26530;-54
2022/06/12 12:27:06;;;;;;;2.70;1.90;;;26.10;54.40;;;;;;219738;1271;25405;-55
2022/06/12 12:32:11;;;;;;;2.20;1.80;;;26.10;55.30;;;;;;219608;1273;22843;-55
2022/06/12 12:42:39;;;;;;;2.50;1.60;;;26.10;54.90;;;;;;220114;1270;22630;-53
2022/06/12 12:47:42;;;;;;;2.60;2.00;;;26.20;55.00;;;;;;220162;1269;22568;-53
2022/06/12 12:52:57;;;;;;;2.40;2.00;;;26.20;55.00;;;;;;220327;1272;23179;-53
2022/06/12 12:58:21;;;;;;;2.40;1.70;;;26.20;55.00;;;;;;220284;1271;25616;-54
2022/06/12 13:03:31;;;;;;;2.20;1.70;;;26.20;54.50;;;;;;220080;1270;23572;-53
2022/06/12 13:08:52;;;;;;;2.80;1.80;;;26.20;55.00;;;;;;219877;1271;22669;-54
2022/06/12 13:14:06;;;;;;;2.30;1.80;;;26.20;54.90;;;;;;220061;1270;22566;-54
2022/06/12 13:19:42;;;;;;;2.50;1.80;;;26.30;54.90;;;;;;219723;1270;406442;-53
2022/06/12 13:24:52;;;;;;;2.10;1.60;;;26.30;54.90;;;;;;219856;1270;22823;-52
2022/06/12 13:29:54;;;;;;;2.70;1.80;;;26.30;54.90;;;;;;219938;1271;24229;-52
2022/06/12 13:35:05;;;;;;;2.30;1.70;;;26.30;54.50;;;;;;220087;1271;22551;-56
2022/06/12 13:40:32;;;;;;;2.50;1.90;;;26.30;54.90;;;;;;219968;1271;23290;-54
2022/06/12 13:45:34;;;;;;;2.40;1.70;;;26.30;54.90;;;;;;220016;1271;22562;-52
2022/06/12 13:50:38;;;;;;;2.80;1.70;;;26.30;54.90;;;;;;219999;1271;24233;-53
2022/06/12 13:55:59;;;;;;;3.70;2.00;;;26.30;54.90;;;;;;219966;1273;24263;-54
2022/06/12 14:01:07;;;;;;;2.90;1.70;;;26.40;55.10;;;;;;220095;1272;24240;-57
2022/06/12 14:06:12;;;;;;;2.40;1.60;;;26.30;54.90;;;;;;219876;1272;22583;-52
2022/06/12 14:11:23;;;;;;;2.60;1.70;;;26.30;54.90;;;;;;220121;1270;22554;-51
2022/06/12 14:16:28;;;;;;;2.90;1.80;;;26.30;55.00;;;;;;220117;1272;24269;-54
2022/06/12 14:21:35;;;;;;;2.30;1.70;;;26.30;55.00;;;;;;220355;1271;22794;-54
2022/06/12 14:26:41;;;;;;;2.90;1.70;;;26.40;55.10;;;;;;220311;1270;24432;-56
2022/06/12 14:31:43;;;;;;;2.60;1.90;;;26.30;55.00;;;;;;220291;1271;22710;-52
2022/06/12 14:36:53;;;;;;;2.10;1.60;;;26.40;55.10;;;;;;220020;1271;22690;-54
2022/06/12 14:42:01;;;;;;;2.50;1.80;;;26.40;54.90;;;;;;220357;1271;24514;-54
2022/06/12 14:47:19;;;;;;;2.40;1.80;;;26.40;55.00;;;;;;219957;1271;25493;-54
2022/06/12 14:52:26;;;;;;;2.60;1.90;;;26.40;55.40;;;;;;220319;1271;22600;-56
2022/06/12 14:57:29;;;;;;;2.60;1.80;;;26.40;54.90;;;;;;220097;1271;25447;-51
2022/06/12 15:02:31;;;;;;;3.20;1.90;;;26.40;54.90;;;;;;220306;1271;22725;-54
2022/06/12 15:07:37;;;;;;;2.10;1.70;;;26.40;54.90;;;;;;220008;1271;22596;-52
2022/06/12 15:12:41;;;;;;;2.70;1.80;;;26.40;55.00;;;;;;220210;1271;25387;-54
2022/06/12 15:17:44;;;;;;;2.60;1.80;;;26.40;54.50;;;;;;220126;1272;24316;-52
2022/06/12 15:22:47;;;;;;;2.30;1.70;;;26.40;54.70;;;;;;220154;1272;25385;-51
2022/06/12 15:33:10;;;;;;;2.30;1.50;;;26.40;55.20;;;;;;219812;1272;22613;-52
2022/06/12 15:38:14;;;;;;;2.70;1.80;;;26.40;54.80;;;;;;220127;1274;25268;-51
2022/06/12 15:43:16;;;;;;;2.30;1.80;;;26.30;54.70;;;;;;220229;1274;22546;-53
2022/06/12 15:48:23;;;;;;;2.20;1.60;;;26.30;54.60;;;;;;220087;1274;22560;-52
2022/06/12 15:53:35;;;;;;;3.20;1.60;;;26.30;54.80;;;;;;220077;1271;23987;-53
2022/06/12 15:58:44;;;;;;;2.50;1.90;;;26.30;55.10;;;;;;220090;1271;23284;-51
2022/06/12 16:03:50;;;;;;;3.10;1.50;;;26.30;54.80;;;;;;220282;1274;24310;-54
2022/06/12 16:08:57;;;;;;;4.30;2.00;;;26.30;54.90;;;;;;220124;1271;25578;-53
2022/06/12 16:14:07;;;;;;;4.10;1.80;;;26.30;55.00;;;;;;219934;1272;22562;-53
2022/06/12 16:19:18;;;;;;;3.60;1.70;;;26.30;55.00;;;;;;220280;1271;22606;-54
2022/06/12 16:24:23;;;;;;;11.40;2.80;;;26.30;55.10;;;;;;219815;1271;24317;-55
2022/06/12 16:29:30;;;;;;;11.60;2.50;;;26.30;55.00;;;;;;219860;1271;25280;-53
2022/06/12 16:34:48;;;;;;;1.90;1.50;;;26.30;55.10;;;;;;219923;1271;25358;-53
2022/06/12 16:39:55;;;;;;;4.90;1.80;;;26.30;55.50;;;;;;219685;1271;22816;-53
2022/06/12 16:45:24;;;;;;;2.10;1.40;;;26.30;55.10;;;;;;219907;1271;24182;-52
2022/06/12 16:50:46;;;;;;;4.60;1.80;;;26.30;55.10;;;;;;220299;1271;22595;-50
2022/06/12 16:56:04;;;;;;;1.90;1.40;;;26.30;55.20;;;;;;220163;1272;24095;-52
2022/06/12 17:01:14;;;;;;;2.10;1.60;;;26.30;55.50;;;;;;220156;1270;22984;-51
2022/06/12 17:06:43;;;;;;;2.40;1.50;;;26.30;55.10;;;;;;219807;1271;24380;-54
2022/06/12 17:11:52;;;;;;;2.50;1.60;;;26.30;55.30;;;;;;220071;1272;25274;-50
2022/06/12 17:17:07;;;;;;;2.50;1.50;;;26.30;55.40;;;;;;220147;1272;24312;-54
2022/06/12 17:22:12;;;;;;;1.80;1.50;;;26.30;55.30;;;;;;220106;1270;23158;-55
2022/06/12 17:27:15;;;;;;;2.40;1.80;;;26.30;55.20;;;;;;220000;1270;22563;-52
2022/06/12 17:32:21;;;;;;;2.50;1.70;;;26.20;55.10;;;;;;220239;1271;22627;-55
2022/06/12 17:37:30;;;;;;;2.10;1.50;;;26.20;55.20;;;;;;220201;1271;24393;-52
2022/06/12 17:42:35;;;;;;;2.10;1.60;;;26.30;55.20;;;;;;219983;1270;25475;-52
2022/06/12 17:47:59;;;;;;;2.20;1.60;;;26.30;55.20;;;;;;220077;1270;25280;-53
2022/06/12 17:53:09;;;;;;;2.00;1.50;;;26.30;55.30;;;;;;220197;1273;24306;-53
2022/06/12 17:58:12;;;;;;;2.30;1.70;;;26.30;55.30;;;;;;220025;1270;24314;-50
2022/06/12 18:03:27;;;;;;;2.20;1.40;;;26.30;55.30;;;;;;219882;1271;24299;-50
2022/06/12 18:08:32;;;;;;;2.00;1.40;;;26.30;55.30;;;;;;219931;1271;22621;-52
2022/06/12 18:13:35;;;;;;;2.20;1.40;;;26.20;55.20;;;;;;220126;1270;22552;-52
2022/06/12 18:24:10;;;;;;;2.20;1.70;;;26.20;55.30;;;;;;220036;1270;24316;-53
2022/06/12 18:29:15;;;;;;;3.20;1.70;;;26.20;55.30;;;;;;220101;1270;22551;-51
2022/06/12 18:34:18;;;;;;;2.70;1.70;;;26.20;55.40;;;;;;220171;1270;25278;-52
2022/06/12 18:39:26;;;;;;;2.10;1.40;;;26.20;55.40;;;;;;220081;1270;22607;-53
2022/06/12 18:44:29;;;;;;;2.30;1.50;;;26.20;55.40;;;;;;220170;1272;24229;-54
2022/06/12 18:49:33;;;;;;;3.60;1.70;;;26.20;55.80;;;;;;220044;1273;22564;-53
2022/06/12 18:54:35;;;;;;;4.30;1.80;;;26.20;55.50;;;;;;219977;1271;25297;-52
2022/06/12 18:59:38;;;;;;;2.90;1.60;;;26.20;55.50;;;;;;220145;1271;24309;-54
2022/06/12 19:04:42;;;;;;;3.20;1.60;;;26.20;55.50;;;;;;220066;1271;22723;-53
2022/06/12 19:09:51;;;;;;;2.20;1.50;;;26.20;55.50;;;;;;219974;1271;22563;-55
2022/06/12 19:15:01;;;;;;;2.10;1.60;;;26.20;55.60;;;;;;219973;1270;22701;-53
2022/06/12 19:20:19;;;;;;;4.50;1.80;;;26.10;55.40;;;;;;219901;1273;22540;-51
2022/06/12 19:25:33;;;;;;;2.70;1.60;;;26.10;55.50;;;;;;219987;1270;22538;-52
2022/06/12 19:30:41;;;;;;;2.00;1.40;;;26.10;55.60;;;;;;220245;1270;24329;-53
2022/06/12 19:36:04;;;;;;;3.70;1.70;;;26.10;55.60;;;;;;220163;1270;24460;-51
2022/06/12 19:41:23;;;;;;;2.40;1.60;;;26.10;55.70;;;;;;220123;1270;24316;-53
2022/06/12 19:47:05;;;;;;;2.40;1.70;;;26.10;55.70;;;;;;220050;1270;24319;-53
2022/06/12 19:52:34;;;;;;;2.00;1.50;;;26.10;55.70;;;;;;220193;1271;22554;-54
2022/06/12 19:58:10;;;;;;;2.90;1.70;;;26.10;55.80;;;;;;220030;1270;25322;-53
2022/06/12 20:03:13;;;;;;;2.00;1.50;;;26.10;55.80;;;;;;219996;1271;22542;-52
2022/06/12 20:08:22;;;;;;;2.00;1.50;;;26.10;55.90;;;;;;219960;1271;24247;-52
2022/06/12 20:13:26;;;;;;;2.10;1.50;;;26.00;55.80;;;;;;220225;1270;26115;-53
2022/06/12 20:18:35;;;;;;;1.90;1.40;;;26.00;55.80;;;;;;219779;1271;24254;-54
2022/06/12 20:23:42;;;;;;;2.60;1.60;;;26.00;55.90;;;;;;219959;1270;25364;-54
2022/06/12 20:29:13;;;;;;;2.90;1.70;;;26.00;55.90;;;;;;220170;1271;25277;-54
2022/06/12 20:34:16;;;;;;;1.90;1.40;;;26.00;55.90;;;;;;220031;1271;22838;-52
2022/06/12 20:39:20;;;;;;;2.60;1.80;;;26.00;55.90;;;;;;220137;1270;22574;-54
2022/06/12 20:44:22;;;;;;;3.80;2.00;;;26.00;55.80;;;;;;220186;1270;22562;-54
2022/06/12 20:49:32;;;;;;;2.10;1.70;;;26.00;55.90;;;;;;220161;1270;25315;-52
2022/06/12 20:54:36;;;;;;;1.80;1.50;;;26.00;55.90;;;;;;219979;1270;22563;-54
2022/06/12 20:59:46;;;;;;;2.30;1.60;;;26.00;55.90;;;;;;220183;1271;22687;-53
2022/06/12 21:04:49;;;;;;;2.10;1.70;;;26.00;55.90;;;;;;220010;1270;24225;-52
2022/06/12 21:09:52;;;;;;;2.20;1.60;;;26.00;55.90;;;;;;219796;1271;24041;-52
2022/06/12 21:14:55;;;;;;;2.30;1.70;;;26.00;56.20;;;;;;219896;1271;26551;-52
2022/06/12 21:19:59;;;;;;;2.70;1.70;;;26.00;55.90;;;;;;220127;1272;24437;-53
2022/06/12 21:25:09;;;;;;;1.90;1.40;;;25.90;55.80;;;;;;220169;1271;22564;-55
2022/06/12 21:30:29;;;;;;;2.20;1.40;;;25.90;56.00;;;;;;219911;1270;22535;-53
2022/06/12 21:35:33;;;;;;;2.20;1.50;;;25.90;56.00;;;;;;220089;1270;22584;-56
2022/06/12 21:40:54;;;;;;;2.70;1.80;;;25.90;56.00;;;;;;220008;1270;25411;-52
2022/06/12 21:45:59;;;;;;;2.20;1.70;;;25.90;56.00;;;;;;219947;1271;22643;-56
2022/06/12 21:51:11;;;;;;;2.10;1.50;;;25.90;56.00;;;;;;220194;1270;26508;-55
2022/06/12 21:56:23;;;;;;;2.60;1.90;;;25.90;56.60;;;;;;219873;1271;23171;-54
2022/06/12 22:01:26;;;;;;;2.30;1.60;;;25.90;56.10;;;;;;219793;1271;25492;-53
2022/06/12 22:06:31;;;;;;;2.50;1.50;;;25.90;56.10;;;;;;220036;1271;25442;-53
2022/06/12 22:11:33;;;;;;;3.10;1.90;;;25.90;56.40;;;;;;220052;1270;24326;-54
2022/06/12 22:16:36;;;;;;;2.30;1.70;;;25.80;56.00;;;;;;220052;1271;23810;-54
2022/06/12 22:21:38;;;;;;;2.90;1.70;;;25.90;56.20;;;;;;220021;1270;23519;-54
2022/06/12 22:26:47;;;;;;;2.00;1.50;;;25.80;56.10;;;;;;219989;1271;25392;-53
2022/06/12 22:31:50;;;;;;;1.90;1.60;;;25.80;55.70;;;;;;220077;1271;25246;-52
2022/06/12 22:36:54;;;;;;;2.70;1.80;;;25.80;55.60;;;;;;220175;1270;24447;-53
2022/06/12 22:41:56;;;;;;;2.30;1.50;;;25.80;56.20;;;;;;220182;1271;22547;-54
2022/06/12 22:46:58;;;;;;;2.90;1.80;;;25.80;56.30;;;;;;219985;1271;22573;-56
2022/06/12 22:52:02;;;;;;;1.90;1.40;;;25.80;56.20;;;;;;219951;1271;22563;-54
2022/06/12 22:57:06;;;;;;;2.30;1.60;;;25.80;56.20;;;;;;220231;1271;25892;-53
2022/06/12 23:02:09;;;;;;;2.50;1.70;;;25.80;56.60;;;;;;219839;1271;24393;-54
2022/06/12 23:07:14;;;;;;;2.30;1.70;;;25.80;56.70;;;;;;220087;1270;24323;-53
2022/06/12 23:12:25;;;;;;;2.20;1.60;;;25.80;56.40;;;;;;220047;1271;24316;-53
2022/06/12 23:17:36;;;;;;;2.50;1.70;;;25.80;56.40;;;;;;220116;1271;24442;-54
2022/06/12 23:28:08;;;;;;;2.30;1.80;;;25.70;56.50;;;;;;220140;1271;24358;-56
2022/06/12 23:33:20;;;;;;;2.10;1.70;;;25.70;56.50;;;;;;220073;1270;24435;-55
2022/06/12 23:38:35;;;;;;;2.00;1.50;;;25.70;56.50;;;;;;220142;1271;24418;-56
2022/06/12 23:43:44;;;;;;;2.10;1.60;;;25.70;56.50;;;;;;220246;1270;22545;-55
2022/06/12 23:49:00;;;;;;;2.10;1.70;;;25.70;56.50;;;;;;220119;1270;22541;-53
2022/06/12 23:54:14;;;;;;;2.60;1.70;;;25.70;56.50;;;;;;220128;1270;25491;-54
2022/06/12 23:59:19;;;;;;;2.20;1.80;;;25.70;56.90;;;;;;220247;1273;22559;-56
